createdAt,value
2022-09-23T00:01:08.017Z,100367.72
2022-09-23T00:03:37.312Z,100362.59
2022-09-23T00:06:06.330Z,100368.22
2022-09-23T00:08:34.264Z,100364.25
2022-09-23T00:11:09.089Z,100355.44
2022-09-23T00:13:36.593Z,100368.13
2022-09-23T00:16:05.173Z,100364.75
2022-09-23T00:18:33.150Z,100363.03
2022-09-23T00:21:07.252Z,100359.63
2022-09-23T00:23:34.749Z,100365.13
2022-09-23T00:26:02.656Z,100359.88
2022-09-23T00:28:31.039Z,100359.88
2022-09-23T00:30:57.733Z,100345.75
2022-09-23T00:33:24.195Z,100352.81
2022-09-23T00:35:58.144Z,100356.47
2022-09-23T00:38:25.942Z,100355.75
2022-09-23T00:40:54.043Z,100355.03
2022-09-23T00:43:36.608Z,100351.63
2022-09-23T00:46:04.909Z,100350.88
2022-09-23T00:48:32.658Z,100358.94
2022-09-23T00:51:00.335Z,100357.84
2022-09-23T00:53:27.917Z,100350.63
2022-09-23T00:56:04.463Z,100351.63
2022-09-23T00:58:33.845Z,100342.84
2022-09-23T01:01:04.387Z,100348.22
2022-09-23T01:03:32.339Z,100345.66
2022-09-23T01:05:59.041Z,100350.16
2022-09-23T01:08:26.902Z,100349.47
2022-09-23T01:10:56.484Z,100347.75
2022-09-23T01:13:35.888Z,100349.72
2022-09-23T01:16:08.461Z,100345.31
2022-09-23T01:18:49.045Z,100348.13
2022-09-23T01:21:20.915Z,100342.88
2022-09-23T01:23:55.513Z,100338.50
2022-09-23T01:26:49.751Z,100349.47
2022-09-23T01:29:45.677Z,100342.66
2022-09-23T01:32:17.849Z,100348.28
2022-09-23T01:35:17.659Z,100354.72
2022-09-23T01:38:12.711Z,100342.41
2022-09-23T01:40:44.967Z,100343.41
2022-09-23T01:43:16.187Z,100342.66
2022-09-23T01:45:48.359Z,100343.66
2022-09-23T01:48:21.925Z,100340.22
2022-09-23T01:51:02.527Z,100338.56
2022-09-23T01:53:48.987Z,100343.16
2022-09-23T01:56:21.274Z,100331.72
2022-09-23T01:59:06.289Z,100335.38
2022-09-23T02:01:40.241Z,100331.97
2022-09-23T02:04:14.048Z,100332.09
2022-09-23T02:06:46.561Z,100330.25
2022-09-23T02:09:15.912Z,100332.22
2022-09-23T02:11:46.098Z,100325.16
2022-09-23T02:14:19.268Z,100331.50
2022-09-23T02:16:52.298Z,100334.44
2022-09-23T02:19:27.967Z,100334.44
2022-09-23T02:22:03.723Z,100336.09
2022-09-23T02:24:32.888Z,100336.38
2022-09-23T02:27:20.728Z,100334.66
2022-09-23T02:30:05.947Z,100331.03
2022-09-23T02:32:57.117Z,100327.34
2022-09-23T02:35:45.589Z,100338.06
2022-09-23T02:38:30.932Z,100336.38
2022-09-23T02:41:16.986Z,100340.03
2022-09-23T02:43:52.323Z,100342.22
2022-09-23T02:46:20.484Z,100345.16
2022-09-23T02:49:03.735Z,100343.44
2022-09-23T02:51:38.694Z,100340.88
2022-09-23T02:54:10.694Z,100346.34
2022-09-23T02:56:39.122Z,100351.00
2022-09-23T02:59:08.083Z,100350.25
2022-09-23T03:01:54.301Z,100355.59
2022-09-23T03:04:41.215Z,100359.03
2022-09-23T03:07:19.606Z,100357.31
2022-09-23T03:10:04.188Z,100357.31
2022-09-23T03:12:53.133Z,100354.16
2022-09-23T03:15:35.578Z,100356.06
2022-09-23T03:18:20.425Z,100346.38
2022-09-23T03:20:55.866Z,100350.72
2022-09-23T03:23:26.284Z,100340.25
2022-09-23T03:25:55.744Z,100340.25
2022-09-23T03:28:23.222Z,100349.28
2022-09-23T03:30:52.538Z,100349.28
2022-09-23T03:33:24.708Z,100351.19
2022-09-23T03:36:17.342Z,100351.19
2022-09-23T03:38:45.938Z,100347.81
2022-09-23T03:41:17.343Z,100352.19
2022-09-23T03:43:45.700Z,100349.75
2022-09-23T03:46:18.591Z,100356.81
2022-09-23T03:48:46.407Z,100348.03
2022-09-23T03:51:25.678Z,100350.00
2022-09-23T03:53:52.159Z,100353.88
2022-09-23T03:56:19.999Z,100356.69
2022-09-23T03:58:49.057Z,100357.75
2022-09-23T04:01:16.674Z,100350.72
2022-09-23T04:03:46.811Z,100349.00
2022-09-23T04:06:16.859Z,100358.88
2022-09-23T04:08:47.056Z,100356.31
2022-09-23T04:11:17.142Z,100355.59
2022-09-23T04:13:47.230Z,100359.94
2022-09-23T04:16:15.856Z,100358.25
2022-09-23T04:18:43.976Z,100368.97
2022-09-23T04:21:11.839Z,100360.94
2022-09-23T04:23:39.791Z,100354.09
2022-09-23T04:26:07.680Z,100364.09
2022-09-23T04:28:37.690Z,100364.09
2022-09-23T04:31:10.506Z,100365.78
2022-09-23T04:33:38.058Z,100359.94
2022-09-23T04:36:04.685Z,100359.94
2022-09-23T04:38:32.672Z,100360.78
2022-09-23T04:41:00.378Z,100356.31
2022-09-23T04:43:27.952Z,100361.41
2022-09-23T04:45:58.029Z,100355.84
2022-09-23T04:48:25.772Z,100362.16
2022-09-23T04:50:53.483Z,100357.50
2022-09-23T04:53:22.552Z,100365.31
2022-09-23T04:55:49.784Z,100368.84
2022-09-23T04:58:17.536Z,100369.47
2022-09-23T05:00:45.222Z,100372.63
2022-09-23T05:03:12.459Z,100371.91
2022-09-23T05:05:39.900Z,100369.72
2022-09-23T05:08:07.631Z,100383.34
2022-09-23T05:10:35.683Z,100375.81
2022-09-23T05:13:03.841Z,100377.28
2022-09-23T05:15:30.288Z,100389.66
2022-09-23T05:17:59.973Z,100382.25
2022-09-23T05:20:26.459Z,100380.44
2022-09-23T05:22:55.663Z,100382.13
2022-09-23T05:25:24.064Z,100389.56
2022-09-23T05:27:52.450Z,100393.06
2022-09-23T05:30:19.985Z,100392.56
2022-09-23T05:32:47.557Z,100394.16
2022-09-23T05:35:14.167Z,100391.84
2022-09-23T05:37:42.221Z,100394.25
2022-09-23T05:40:10.193Z,100390.09
2022-09-23T05:42:37.848Z,100397.63
2022-09-23T05:45:07.707Z,100395.41
2022-09-23T05:47:34.204Z,100401.44
2022-09-23T05:50:01.745Z,100398.47
2022-09-23T05:52:28.313Z,100397.19
2022-09-23T05:54:54.795Z,100397.66
2022-09-23T05:57:22.845Z,100401.25
2022-09-23T05:59:49.344Z,100410.75
2022-09-23T06:02:15.969Z,100407.72
2022-09-23T06:04:43.143Z,100418.38
2022-09-23T06:07:10.027Z,100417.59
2022-09-23T06:09:36.956Z,100417.53
2022-09-23T06:12:03.822Z,100421.06
2022-09-23T06:14:30.303Z,100424.41
2022-09-23T06:16:56.847Z,100423.63
2022-09-23T06:19:23.325Z,100417.44
2022-09-23T06:21:49.835Z,100420.13
2022-09-23T06:24:20.480Z,100418.88
2022-09-23T06:26:49.223Z,100415.19
2022-09-23T06:29:15.810Z,100422.63
2022-09-23T06:31:43.455Z,100425.13
2022-09-23T06:34:14.570Z,100426.69
2022-09-23T06:36:45.977Z,100419.75
2022-09-23T06:39:14.009Z,100412.66
2022-09-23T06:41:40.483Z,100421.06
2022-09-23T06:44:07.041Z,100421.88
2022-09-23T06:46:33.820Z,100421.63
2022-09-23T06:49:02.147Z,100422.56
2022-09-23T06:51:29.759Z,100426.94
2022-09-23T06:53:56.158Z,100425.09
2022-09-23T06:56:23.731Z,100429.66
2022-09-23T06:58:51.679Z,100433.59
2022-09-23T07:01:19.174Z,100431.91
2022-09-23T07:03:47.136Z,100433.28
2022-09-23T07:06:13.737Z,100447.13
2022-09-23T07:08:42.523Z,100438.25
2022-09-23T07:11:11.653Z,100443.06
2022-09-23T07:13:38.223Z,100443.91
2022-09-23T07:16:05.379Z,100441.59
2022-09-23T07:18:36.628Z,100440.41
2022-09-23T07:21:15.152Z,100433.56
2022-09-23T07:23:42.417Z,100451.94
2022-09-23T07:26:09.028Z,100442.34
2022-09-23T07:28:37.097Z,100450.84
2022-09-23T07:31:08.111Z,100445.41
2022-09-23T07:33:36.187Z,100446.13
2022-09-23T07:36:07.480Z,100440.94
2022-09-23T07:38:34.101Z,100452.47
2022-09-23T07:41:02.546Z,100453.63
2022-09-23T07:43:32.342Z,100452.84
2022-09-23T07:45:59.955Z,100456.34
2022-09-23T07:48:30.673Z,100462.69
2022-09-23T07:51:00.304Z,100460.31
2022-09-23T07:53:27.161Z,100451.00
2022-09-23T07:55:54.511Z,100458.50
2022-09-23T07:58:21.219Z,100453.50
2022-09-23T08:00:48.470Z,100452.09
2022-09-23T08:03:15.048Z,100460.91
2022-09-23T08:05:41.555Z,100461.97
2022-09-23T08:08:08.263Z,100464.75
2022-09-23T08:10:34.727Z,100465.66
2022-09-23T08:13:03.435Z,100461.00
2022-09-23T08:15:31.227Z,100457.31
2022-09-23T08:17:59.917Z,100470.75
2022-09-23T08:20:47.151Z,100465.09
2022-09-23T08:23:14.968Z,100460.38
2022-09-23T08:25:44.057Z,100458.28
2022-09-23T08:28:14.300Z,100457.72
2022-09-23T08:30:40.825Z,100454.31
2022-09-23T08:33:07.327Z,100458.31
2022-09-23T08:35:33.760Z,100461.63
2022-09-23T08:38:00.243Z,100456.13
2022-09-23T08:40:26.785Z,100459.38
2022-09-23T08:42:53.319Z,100452.78
2022-09-23T08:45:26.934Z,100456.38
2022-09-23T08:48:01.891Z,100451.47
2022-09-23T08:50:37.289Z,100456.69
2022-09-23T08:53:05.655Z,100449.13
2022-09-23T08:55:37.741Z,100447.59
2022-09-23T08:58:26.417Z,100441.97
2022-09-23T09:01:02.275Z,100448.75
2022-09-23T09:03:34.199Z,100455.59
2022-09-23T09:06:01.085Z,100447.06
2022-09-23T09:08:34.743Z,100445.66
2022-09-23T09:11:01.273Z,100446.47
2022-09-23T09:13:32.730Z,100441.88
2022-09-23T09:16:13.891Z,100440.59
2022-09-23T09:18:46.175Z,100436.00
2022-09-23T09:21:13.472Z,100438.63
2022-09-23T09:23:51.135Z,100432.81
2022-09-23T09:26:22.580Z,100430.84
2022-09-23T09:28:52.157Z,100430.06
2022-09-23T09:31:30.670Z,100429.81
2022-09-23T09:34:11.441Z,100422.34
2022-09-23T09:36:37.868Z,100437.44
2022-09-23T09:39:04.545Z,100441.22
2022-09-23T09:41:33.769Z,100433.91
2022-09-23T09:44:03.581Z,100433.91
2022-09-23T09:46:47.000Z,100432.22
2022-09-23T09:49:14.608Z,100439.16
2022-09-23T09:51:42.479Z,100441.28
2022-09-23T09:54:23.199Z,100433.75
2022-09-23T09:56:50.357Z,100437.34
2022-09-23T09:59:21.091Z,100441.47
2022-09-23T10:01:48.113Z,100438.53
2022-09-23T10:04:37.675Z,100444.91
2022-09-23T10:07:09.859Z,100433.81
2022-09-23T10:09:37.400Z,100434.78
2022-09-23T10:12:18.785Z,100423.88
2022-09-23T10:14:46.728Z,100426.16
2022-09-23T10:17:21.152Z,100426.91
2022-09-23T10:19:49.535Z,100425.91
2022-09-23T10:22:21.990Z,100424.03
2022-09-23T10:24:50.069Z,100415.91
2022-09-23T10:27:25.276Z,100415.72
2022-09-23T10:29:55.327Z,100417.22
2022-09-23T10:32:21.796Z,100421.22
2022-09-23T10:34:53.257Z,100421.81
2022-09-23T10:37:42.537Z,100415.03
2022-09-23T10:40:32.237Z,100413.75
2022-09-23T10:43:33.434Z,100406.38
2022-09-23T10:46:21.283Z,100407.06
2022-09-23T10:48:57.612Z,100408.78
2022-09-23T10:51:32.113Z,100403.09
2022-09-23T10:54:01.238Z,100411.69
2022-09-23T10:56:37.463Z,100401.53
2022-09-23T10:59:06.995Z,100397.03
2022-09-23T11:02:02.098Z,100398.16
2022-09-23T11:04:40.627Z,100399.06
2022-09-23T11:07:14.313Z,100401.25
2022-09-23T11:09:59.202Z,100395.34
2022-09-23T11:12:44.379Z,100387.16
2022-09-23T11:15:11.007Z,100383.38
2022-09-23T11:17:49.635Z,100373.88
2022-09-23T11:20:28.248Z,100380.59
2022-09-23T11:23:05.699Z,100381.34
2022-09-23T11:25:44.471Z,100375.47
2022-09-23T11:28:23.444Z,100375.06
2022-09-23T11:30:50.009Z,100365.44
2022-09-23T11:33:37.106Z,100372.50
2022-09-23T11:36:09.068Z,100359.84
2022-09-23T11:38:45.020Z,100367.41
2022-09-23T11:41:17.610Z,100365.00
2022-09-23T11:43:47.474Z,100368.63
2022-09-23T11:46:18.862Z,100372.94
2022-09-23T11:48:45.287Z,100359.56
2022-09-23T11:51:50.223Z,100356.78
2022-09-23T11:54:26.234Z,100348.66
2022-09-23T11:56:59.354Z,100350.31
2022-09-23T11:59:41.138Z,100347.81
2022-09-23T12:02:19.974Z,100351.44
2022-09-23T12:04:58.193Z,100341.00
2022-09-23T12:07:29.319Z,100345.09
2022-09-23T12:10:08.370Z,100343.91
2022-09-23T12:12:48.864Z,100337.22
2022-09-23T12:15:21.141Z,100335.34
2022-09-23T12:17:50.645Z,100328.88
2022-09-23T12:20:19.844Z,100313.44
2022-09-23T12:22:49.237Z,100321.13
2022-09-23T12:25:15.628Z,100315.47
2022-09-23T12:27:45.635Z,100314.13
2022-09-23T12:30:20.267Z,100316.63
2022-09-23T12:32:47.179Z,100317.31
2022-09-23T12:35:32.253Z,100318.72
2022-09-23T12:38:01.132Z,100317.00
2022-09-23T12:40:43.683Z,100316.34
2022-09-23T12:43:30.475Z,100313.38
2022-09-23T12:46:16.585Z,100310.28
2022-09-23T12:48:44.238Z,100299.75
2022-09-23T12:51:16.298Z,100302.31
2022-09-23T12:53:52.336Z,100303.84
2022-09-23T12:56:18.797Z,100297.50
2022-09-23T12:58:48.217Z,100293.50
2022-09-23T13:01:14.860Z,100293.84
2022-09-23T13:04:04.211Z,100290.22
2022-09-23T13:06:40.984Z,100279.84
2022-09-23T13:09:15.343Z,100278.97
2022-09-23T13:11:43.345Z,100274.97
2022-09-23T13:14:12.978Z,100272.38
2022-09-23T13:16:46.548Z,100280.47
2022-09-23T13:19:38.043Z,100280.84
2022-09-23T13:22:09.115Z,100273.66
2022-09-23T13:24:45.629Z,100271.34
2022-09-23T13:27:12.115Z,100264.56
2022-09-23T13:29:56.812Z,100267.84
2022-09-23T13:32:28.058Z,100268.38
2022-09-23T13:35:01.816Z,100264.19
2022-09-23T13:37:37.040Z,100256.81
2022-09-23T13:40:18.729Z,100258.78
2022-09-23T13:42:48.929Z,100252.16
2022-09-23T13:45:17.042Z,100251.31
2022-09-23T13:47:44.553Z,100243.19
2022-09-23T13:50:22.193Z,100245.44
2022-09-23T13:52:59.648Z,100241.56
2022-09-23T13:55:31.108Z,100242.59
2022-09-23T13:58:02.863Z,100246.63
2022-09-23T14:00:35.288Z,100238.06
2022-09-23T14:03:02.983Z,100231.16
2022-09-23T14:05:36.019Z,100234.56
2022-09-23T14:08:02.873Z,100234.38
2022-09-23T14:10:31.211Z,100238.13
2022-09-23T14:12:59.317Z,100231.66
2022-09-23T14:15:25.957Z,100232.44
2022-09-23T14:17:54.237Z,100229.28
2022-09-23T14:20:22.880Z,100224.91
2022-09-23T14:23:02.900Z,100218.06
2022-09-23T14:25:29.382Z,100228.00
2022-09-23T14:28:00.277Z,100219.63
2022-09-23T14:30:27.005Z,100218.78
2022-09-23T14:32:53.815Z,100219.13
2022-09-23T14:35:22.140Z,100205.84
2022-09-23T14:38:11.812Z,100208.63
2022-09-23T14:40:50.344Z,100220.69
2022-09-23T14:43:23.223Z,100213.88
2022-09-23T14:45:55.031Z,100216.69
2022-09-23T14:48:24.254Z,100221.22
2022-09-23T14:50:52.167Z,100208.66
2022-09-23T14:53:19.046Z,100219.47
2022-09-23T14:55:46.819Z,100215.03
2022-09-23T14:58:17.516Z,100213.22
2022-09-23T15:00:57.204Z,100215.97
2022-09-23T15:03:23.942Z,100210.69
2022-09-23T15:05:51.954Z,100210.34
2022-09-23T15:08:23.066Z,100213.97
2022-09-23T15:10:50.249Z,100212.72
2022-09-23T15:13:19.338Z,100213.03
2022-09-23T15:15:46.103Z,100210.00
2022-09-23T15:18:19.881Z,100196.91
2022-09-23T15:20:52.266Z,100197.41
2022-09-23T15:23:34.676Z,100192.06
2022-09-23T15:26:07.305Z,100197.16
2022-09-23T15:28:33.827Z,100197.97
2022-09-23T15:31:00.406Z,100202.66
2022-09-23T15:33:28.237Z,100190.25
2022-09-23T15:35:54.781Z,100195.81
2022-09-23T15:38:21.697Z,100187.47
2022-09-23T15:40:48.788Z,100195.72
2022-09-23T15:43:20.538Z,100192.38
2022-09-23T15:45:48.153Z,100190.63
2022-09-23T15:48:16.183Z,100181.25
2022-09-23T15:50:42.974Z,100187.94
2022-09-23T15:53:17.471Z,100188.16
2022-09-23T15:55:44.086Z,100187.03
2022-09-23T15:58:10.620Z,100190.19
2022-09-23T16:00:37.983Z,100178.88
2022-09-23T16:03:05.200Z,100188.91
2022-09-23T16:05:37.753Z,100190.56
2022-09-23T16:08:08.979Z,100184.69
2022-09-23T16:10:37.197Z,100180.09
2022-09-23T16:13:06.413Z,100182.66
2022-09-23T16:15:33.449Z,100187.81
2022-09-23T16:18:00.548Z,100189.81
2022-09-23T16:20:28.538Z,100188.03
2022-09-23T16:22:54.951Z,100185.56
2022-09-23T16:25:23.540Z,100196.22
2022-09-23T16:27:50.340Z,100198.94
2022-09-23T16:30:16.936Z,100194.44
2022-09-23T16:32:44.234Z,100191.28
2022-09-23T16:35:11.242Z,100194.34
2022-09-23T16:37:37.695Z,100188.69
2022-09-23T16:40:04.751Z,100198.41
2022-09-23T16:42:31.243Z,100198.25
2022-09-23T16:44:57.711Z,100193.97
2022-09-23T16:47:24.218Z,100192.38
2022-09-23T16:49:50.644Z,100192.84
2022-09-23T16:52:17.271Z,100197.50
2022-09-23T16:54:43.797Z,100186.19
2022-09-23T16:57:10.412Z,100196.44
2022-09-23T16:59:55.229Z,100197.13
2022-09-23T17:02:40.320Z,100203.09
2022-09-23T17:05:06.989Z,100204.13
2022-09-23T17:07:33.464Z,100195.56
2022-09-23T17:10:00.099Z,100209.13
2022-09-23T17:12:29.370Z,100211.47
2022-09-23T17:14:55.820Z,100202.38
2022-09-23T17:17:22.427Z,100207.44
2022-09-23T17:19:48.866Z,100208.13
2022-09-23T17:22:15.299Z,100204.25
2022-09-23T17:24:42.853Z,100210.69
2022-09-23T17:27:09.360Z,100218.50
2022-09-23T17:29:35.784Z,100214.59
2022-09-23T17:32:02.445Z,100224.38
2022-09-23T17:34:29.003Z,100217.97
2022-09-23T17:36:55.687Z,100227.78
2022-09-23T17:39:22.172Z,100230.50
2022-09-23T17:41:48.617Z,100235.69
2022-09-23T17:44:17.685Z,100235.53
2022-09-23T17:46:44.350Z,100240.78
2022-09-23T17:49:12.206Z,100238.56
2022-09-23T17:51:38.639Z,100249.31
2022-09-23T17:54:05.200Z,100257.75
2022-09-23T17:56:31.632Z,100248.88
2022-09-23T17:59:00.370Z,100254.25
2022-09-23T18:01:27.210Z,100258.97
2022-09-23T18:03:57.779Z,100252.81
2022-09-23T18:06:25.647Z,100257.16
2022-09-23T18:08:52.673Z,100251.38
2022-09-23T18:11:19.200Z,100264.78
2022-09-23T18:13:53.065Z,100258.34
2022-09-23T18:16:20.570Z,100256.44
2022-09-23T18:18:54.128Z,100261.31
2022-09-23T18:21:21.246Z,100271.03
2022-09-23T18:23:47.932Z,100264.25
2022-09-23T18:26:15.349Z,100275.34
2022-09-23T18:28:42.806Z,100265.03
2022-09-23T18:31:10.337Z,100269.06
2022-09-23T18:33:36.846Z,100271.53
2022-09-23T18:36:04.751Z,100265.06
2022-09-23T18:38:31.287Z,100265.69
2022-09-23T18:40:58.423Z,100266.31
2022-09-23T18:43:27.449Z,100264.91
2022-09-23T18:46:00.298Z,100277.84
2022-09-23T18:48:47.289Z,100271.19
2022-09-23T18:51:14.487Z,100275.81
2022-09-23T18:53:44.286Z,100276.13
2022-09-23T18:56:12.266Z,100268.72
2022-09-23T18:58:39.126Z,100268.34
2022-09-23T19:01:09.363Z,100269.09
2022-09-23T19:03:36.337Z,100269.19
2022-09-23T19:06:04.235Z,100273.16
2022-09-23T19:08:30.789Z,100270.09
2022-09-23T19:10:57.844Z,100268.69
2022-09-23T19:13:24.362Z,100266.44
2022-09-23T19:15:50.871Z,100270.16
2022-09-23T19:18:19.790Z,100260.97
2022-09-23T19:20:53.136Z,100261.91
2022-09-23T19:23:20.643Z,100263.34
2022-09-23T19:25:47.415Z,100259.22
2022-09-23T19:28:14.171Z,100258.69
2022-09-23T19:30:40.866Z,100262.66
2022-09-23T19:33:09.092Z,100261.81
2022-09-23T19:35:36.195Z,100268.34
2022-09-23T19:38:02.659Z,100266.94
2022-09-23T19:40:31.845Z,100260.16
2022-09-23T19:42:58.987Z,100262.16
2022-09-23T19:45:25.486Z,100266.97
2022-09-23T19:47:58.289Z,100269.78
2022-09-23T19:50:24.774Z,100263.31
2022-09-23T19:52:54.347Z,100259.66
2022-09-23T19:55:20.768Z,100263.06
2022-09-23T19:57:47.510Z,100273.28
2022-09-23T20:00:15.296Z,100271.00
2022-09-23T20:02:42.441Z,100273.00
2022-09-23T20:05:11.883Z,100274.97
2022-09-23T20:07:44.771Z,100276.94
2022-09-23T20:10:11.663Z,100274.53
2022-09-23T20:12:38.645Z,100263.06
2022-09-23T20:15:05.674Z,100273.25
2022-09-23T20:17:32.479Z,100270.69
2022-09-23T20:19:59.078Z,100273.41
2022-09-23T20:22:29.594Z,100272.69
2022-09-23T20:24:59.286Z,100272.00
2022-09-23T20:27:26.249Z,100271.00
2022-09-23T20:29:52.748Z,100272.69
2022-09-23T20:32:19.483Z,100278.06
2022-09-23T20:34:49.773Z,100265.59
2022-09-23T20:37:17.490Z,100272.28
2022-09-23T20:39:47.680Z,100268.72
2022-09-23T20:42:14.719Z,100268.16
2022-09-23T20:44:43.193Z,100262.78
2022-09-23T20:47:13.077Z,100265.63
2022-09-23T20:49:43.774Z,100266.75
2022-09-23T20:52:11.158Z,100264.78
2022-09-23T20:54:40.927Z,100264.78
2022-09-23T20:57:09.159Z,100259.69
2022-09-23T20:59:35.623Z,100261.66
2022-09-23T21:02:02.475Z,100258.25
2022-09-23T21:04:29.893Z,100266.75
2022-09-23T21:07:01.097Z,100263.50
2022-09-23T21:09:28.273Z,100263.09
2022-09-23T21:11:55.171Z,100255.44
2022-09-23T21:14:22.471Z,100263.94
2022-09-23T21:16:50.485Z,100271.25
2022-09-23T21:19:20.338Z,100258.25
2022-09-23T21:21:46.850Z,100263.91
2022-09-23T21:24:40.076Z,100265.06
2022-09-23T21:26:59.977Z,100259.94
2022-09-23T21:29:26.386Z,100267.28
2022-09-23T21:31:52.955Z,100261.91
2022-09-23T21:34:19.583Z,100261.22
2022-09-23T21:36:48.089Z,100265.88
2022-09-23T21:39:14.841Z,100260.78
2022-09-23T21:41:41.298Z,100255.69
2022-09-23T21:44:08.518Z,100257.38
2022-09-23T21:46:36.058Z,100262.03
2022-09-23T21:49:03.827Z,100259.63
2022-09-23T21:51:34.133Z,100261.34
2022-09-23T21:54:01.182Z,100258.94
2022-09-23T21:56:29.296Z,100256.25
2022-09-23T21:58:57.064Z,100256.25
2022-09-23T22:01:23.598Z,100252.84
2022-09-23T22:03:51.947Z,100255.94
2022-09-23T22:06:21.348Z,100257.06
2022-09-23T22:08:52.173Z,100254.53
2022-09-23T22:11:37.958Z,100258.31
2022-09-23T22:14:05.723Z,100257.63
2022-09-23T22:16:32.439Z,100256.19
2022-09-23T22:19:01.207Z,100245.72
2022-09-23T22:21:29.047Z,100245.13
2022-09-23T22:23:57.133Z,100246.25
2022-09-23T22:26:24.576Z,100253.59
2022-09-23T22:29:09.965Z,100256.44
2022-09-23T22:31:55.139Z,100251.34
2022-09-23T22:34:48.572Z,100252.16
2022-09-23T22:37:13.921Z,100248.78
2022-09-23T22:39:40.409Z,100248.78
2022-09-23T22:42:07.476Z,100255.00
2022-09-23T22:44:33.929Z,100255.88
2022-09-23T22:47:01.273Z,100260.22
2022-09-23T22:49:27.857Z,100257.53
2022-09-23T22:51:54.306Z,100264.88
2022-09-23T22:54:23.792Z,100261.50
2022-09-23T22:56:50.867Z,100262.59
2022-09-23T22:59:17.294Z,100263.72
2022-09-23T23:01:43.916Z,100262.03
2022-09-23T23:04:12.505Z,100261.31
2022-09-23T23:06:39.152Z,100265.69
2022-09-23T23:09:07.643Z,100260.59
2022-09-23T23:11:34.226Z,100265.13
2022-09-23T23:14:02.287Z,100257.22
2022-09-23T23:16:35.734Z,100260.59
2022-09-23T23:19:04.465Z,100260.06
2022-09-23T23:21:30.964Z,100250.75
2022-09-23T23:23:57.398Z,100256.13
2022-09-23T23:26:25.271Z,100247.47
2022-09-23T23:28:52.969Z,100251.03
2022-09-23T23:31:21.156Z,100251.31
2022-09-23T23:33:47.888Z,100249.72
2022-09-23T23:36:15.302Z,100240.00
2022-09-23T23:38:42.718Z,100244.63
2022-09-23T23:41:11.198Z,100238.69
2022-09-23T23:43:38.646Z,100250.41
2022-09-23T23:46:06.674Z,100245.03
2022-09-23T23:48:34.455Z,100241.38
2022-09-23T23:51:01.731Z,100237.72
2022-09-23T23:53:35.752Z,100236.00
2022-09-23T23:56:06.944Z,100230.38
2022-09-23T23:58:33.483Z,100234.75
